Flugplatz Adolf Würth

Bericht für EDTY

vom 23.02. um 23:20 UTC

Wind 15 kt aus 320°

Sichtweite 8000 m

aufgelockert bewölkt in 900 ft

bedeckt in 2300 ft

Temperatur 6.0°C

Taupunkt 4.0°C

Luftfeuchtigkeit 87%

Luftdruck 1022 hPa

EDTY 232320Z AUTO 32015KT 8000 // SCT009/// OVC023/// 06/04 Q1022

Prognose für EDTY

vom 23.02. um 00:00 UTC

Am 23.02. zwischen 00:00 UTC und 00:00 UTC

Wind 20 kt aus 260° in Böen 35 kt

Sichtweite 10 km oder mehr

bedeckt in 3000 ft


Am 23.02. zwischen 00:00 UTC und 00:00 UTC zeitweise

Sichtweite 3500 m

Regen

aufgebrochene Bewölkung in 800 ft


Am 23.02. zwischen 00:00 und 00:00 UTC übergehend zu

Wind 8 kt aus 350°

Sichtweite 10 km oder mehr

bedeckt in 3000 ft

TAF EDTY 231700Z 2318/2403 26020G35KT 9999 OVC030 TEMPO 2320/2403 3500 RA BKN008 BECMG 2323/2402 35008KT
Impressum